Helgoland, Germany

11:05 PM CEST on July 25, 2014 (GMT +0200)
Nordholz Navy (ETMN) Elev 105 ft | 53.76 °N, 8.66 °E | Change Station

Current weather conditions updated 45 minutes ago

Mostly Cloudy
Mostly Cloudy
68 °F
Feels Like 68 °F
N
6
Wind Variable Wind from North

Tomorrow is forecast to be Much Cooler than today. Morning rain and a thundershower.

Today
High -- | Low -- °F
--% Chance of Precip.
Yesterday
High -- | Low -- °F
Precip. -- in
5:29 AM 9:39 PM
Waning Crescent, 1% visible
Pressure 29.95 in
Visibility 6.2 miles
Clouds Mostly Cloudy 11000 ft
Mostly Cloudy 15000 ft
Dew Point 63 °F
Humidity 83%
Rainfall 0.00 in
Snow Depth Not available.
UV 0 out of 12
Pollen Not available.
Air Quality Not available.
Flu Activity Not available.
METAR ETMN 252020Z 36005KT 9999 BKN110 BKN150 20/17 Q1014 BLU

More Conditions Fewer Conditions

Pressure 29.95 in
Visibility 6.2 miles
Clouds Mostly Cloudy 11000 ft
Mostly Cloudy 15000 ft
Dew Point 63 °F
Humidity 83%
Rainfall 0.00 in
Snow Depth Not available.
UV 0 out of 12
Pollen Not available.
Air Quality Not available.
Flu Activity Not available.
METAR ETMN 252020Z 36005KT 9999 BKN110 BKN150 20/17 Q1014 BLU

More Conditions Fewer Conditions

10-Day Weather Forecast

Almanac

Astronomy

Jul. 25, 2014 Rise Set
Actual Time 5:29 AM CEST 9:39 PM CEST
Civil Twilight 4:41 AM CEST 10:26 PM CEST
Nautical Twilight 3:31 AM CEST 11:35 PM CEST
Astronomical Twilight 2:07 AM CEST 1:02 AM CEST
Moon 4:20 AM CEST 8:16 PM CEST
Length of Visible Light 17h 44m
Length of Day
16h 10m
Tomorrow will be 3m 13s shorter.
Waning Crescent, 1% of the Moon is Illuminated
Today
Waning Crescent
Jul 26
New
Aug 3
First Quarter
Aug 10
Full
Aug 17
Last Quarter

Today's Extremes

Country Highs Country Lows

Community

WunderPhotos

Upload Photos

1,737,402 photos uploaded!

Nearby

Snow Depth

Not available.

Earthquake Activity

City Distance Mag. Time & Date
No recent earthquake activity has been reported nearby.
Minimum magnitude displayed is 2.5.

Coastal Water Temperatures

Place Temperature
No Stations Reporting

Nearby Weather Stations

There are no personal weather stations in this area.